Beaver Creek, Minnesota
Current Conditions -  °F | °C
As of 11:34 PM on Friday 19 Dec 2014 (Local Time) from KLYV Reporting Station
Haze Haze  
Wind Chill: 24°   Ceiling: 800
Heat Index: 32°   Visibility: 4mi
Dew Point: 30°   Wind: 9mph
Humidity: 93%   Direction: 180°S
Pressure: 30.09"   Gusts: NA
Location:  43.61°N, 96.36°W
Report Text: KLYV 200534Z AUTO 18008KT 4SM BR OVC008 00/M01 A3009 RMK AO2
Loading
Personal Weather Stations






























Interactive Weather Map New forecast layout! Learn more

10-Day Weather Forecast

Advertisements
Track Severe Weather on mobile